Date,TemperatureHighF,TemperatureAvgF,TemperatureLowF,DewpointHighF,DewpointAvgF,DewpointLowF,HumidityHigh,HumidityAvg,HumidityLow,PressureMaxIn,PressureMinIn,WindSpeedMaxMPH,WindSpeedAvgMPH,GustSpeedMaxMPH,PrecipitationSumIn
2013-1-1,22,17,10,16,12,6,85,77,64,29.92,29.79,5,1,10,0.00
2013-1-2,32,20,7,19,12,3,85,73,54,29.89,29.77,8,1,13,0.00
2013-1-3,37,28,20,28,22,14,91,79,66,30.03,29.82,9,1,14,0.12
2013-1-4,37,25,13,25,18,8,88,75,57,30.02,29.90,5,1,14,0.07
2013-1-5,41,33,25,35,29,20,92,82,70,29.91,29.69,9,2,17,0.01
2013-1-6,37,30,21,33,22,17,85,74,58,29.99,29.69,14,3,24,0.01
2013-1-7,46,33,20,30,24,17,88,70,48,29.99,29.74,10,3,17,0.00
2013-1-8,50,40,29,32,27,22,79,61,45,29.79,29.68,8,2,13,0.00
2013-1-9,53,42,33,35,32,28,92,69,42,30.11,29.76,6,1,11,0.00
2013-1-10,47,42,37,47,37,25,99,84,50,30.08,29.40,11,3,18,0.54
2013-1-11,60,54,46,52,48,46,99,83,65,29.47,29.33,15,5,26,0.00
2013-1-12,55,41,26,48,33,24,96,72,49,29.65,29.38,10,3,19,0.00
2013-1-13,26,20,13,25,15,9,95,78,65,29.98,29.59,0,0,0,0.00
2013-1-14,26,18,10,16,11,7,90,75,53,30.12,29.98,0,0,0,0.00
2013-1-15,29,22,11,18,14,8,87,72,53,30.06,29.78,0,0,0,0.00
2013-1-16,40,28,14,26,19,11,89,72,51,29.81,29.61,6,0,14,0.07
2013-1-17,37,31,24,31,22,15,92,70,44,30.09,29.75,9,2,17,0.00
2013-1-18,52,39,23,32,25,18,83,59,37,30.10,29.69,12,4,24,0.00
2013-1-19,57,48,41,38,33,27,67,56,44,29.78,29.53,13,3,22,0.00
2013-1-20,41,24,18,30,11,4,77,56,41,30.01,29.78,11,4,18,0.00
2013-1-21,18,14,11,11,0,-9,77,52,33,30.02,29.94,14,4,23,0.00
2013-1-22,18,13,7,5,0,-4,67,56,48,30.11,29.98,6,1,11,0.00
2013-1-23,39,24,12,20,13,4,83,62,43,30.04,29.77,11,2,20,0.00
2013-1-24,25,19,12,11,4,-1,68,52,39,30.24,29.87,11,4,18,0.00
2013-1-25,42,32,25,23,16,9,68,52,36,29.88,29.72,8,2,15,0.00
2013-1-26,37,27,16,22,12,7,71,53,32,30.04,29.87,8,2,11,0.00
2013-1-27,51,37,27,50,33,16,98,85,62,29.92,29.50,16,6,25,0.02
2013-1-28,68,59,51,61,56,50,98,89,77,29.57,29.41,11,4,18,0.00
2013-1-29,65,58,44,60,56,43,99,93,80,29.42,29.06,11,3,21,1.12
2013-1-30,44,32,24,42,28,14,99,84,63,29.53,28.99,20,5,29,0.20
2013-1-31,26,20,7,18,9,-4,73,62,53,30.03,29.53,15,6,27,0.00
2013-2-1,26,16,5,18,4,-4,78,61,43,30.09,29.81,11,3,16,0.00
2013-2-2,36,30,25,23,19,16,86,63,53,29.81,29.67,12,3,19,0.00
2013-2-3,33,29,26,28,20,15,95,69,47,29.83,29.60,13,4,24,0.00
2013-2-4,46,34,27,30,24,17,80,67,51,29.63,29.43,11,3,16,0.00
2013-2-5,50,35,26,33,28,20,89,75,51,29.76,29.51,11,2,21,0.00
2013-2-6,54,39,26,33,29,24,97,70,36,29.84,29.65,11,3,17,0.00
2013-2-7,43,40,34,43,37,32,99,90,66,29.73,29.50,11,3,18,0.56
2013-2-8,36,33,31,34,29,26,99,84,72,30.01,29.73,12,3,17,0.00
2013-2-9,42,35,29,34,29,26,89,79,64,29.99,29.61,14,6,23,0.08
2013-2-10,58,46,37,52,40,28,96,79,42,29.62,29.11,17,7,26,0.31
2013-2-11,47,39,28,29,26,22,81,59,45,29.79,29.36,15,4,28,0.00
2013-2-12,42,33,24,30,25,21,95,75,46,29.80,29.58,5,0,8,0.00
2013-2-13,50,38,28,33,29,24,92,71,44,29.59,29.43,8,1,14,0.00
2013-2-14,51,42,32,34,30,25,89,64,46,29.72,29.41,12,3,21,0.00
2013-2-15,38,31,24,28,15,8,81,54,31,29.93,29.72,11,4,17,0.00
2013-2-16,35,25,17,16,12,9,77,59,37,29.91,29.78,10,2,14,0.00
2013-2-17,47,34,21,31,20,13,77,59,33,29.80,29.48,14,5,21,0.00
2013-2-18,57,43,28,48,36,18,96,75,56,29.54,29.10,22,8,36,0.35
2013-2-19,28,24,20,19,12,7,73,60,46,29.94,29.54,14,5,26,0.00
2013-2-20,24,18,10,13,8,3,75,63,50,30.06,29.92,8,2,14,0.00
2013-2-21,30,24,18,30,20,12,98,87,74,29.96,29.46,13,4,21,0.00
2013-2-22,33,30,23,32,26,17,99,86,73,29.68,29.41,0,0,0,0.00
2013-2-23,32,22,10,21,16,8,93,77,62,29.68,29.62,6,0,8,0.08
2013-2-24,42,29,15,30,20,12,91,71,50,29.75,29.65,6,2,11,0.00
2013-2-25,43,36,27,33,28,22,86,74,56,29.73,29.39,12,3,21,0.00
2013-2-26,36,34,32,34,32,30,99,94,78,29.39,29.08,11,2,17,0.26
2013-2-27,35,32,31,32,31,29,99,94,87,29.53,29.30,12,1,17,0.11
2013-2-28,34,32,29,30,29,27,97,89,78,29.75,29.52,9,2,14,0.05
2013-3-1,33,29,26,28,25,23,97,86,68,29.87,29.71,8,3,11,0.07
2013-3-2,33,27,18,23,18,13,91,71,50,29.91,29.84,11,3,17,0.00
2013-3-3,36,27,12,25,18,9,90,72,54,29.85,29.65,8,2,13,0.00
2013-3-4,43,36,32,32,29,25,88,75,61,29.67,29.42,12,5,22,0.01
2013-3-5,35,33,30,32,28,20,98,81,59,29.80,29.48,17,5,28,0.08
2013-3-6,36,30,22,24,22,18,84,72,58,30.01,29.80,11,4,24,0.00
2013-3-7,39,30,17,29,23,14,93,78,60,30.04,29.94,7,2,10,0.00
2013-3-8,47,38,28,34,31,26,92,75,59,30.03,29.79,10,4,17,0.00
2013-3-9,55,46,38,42,38,33,96,75,56,29.80,29.38,13,5,20,0.59
2013-3-10,54,50,41,52,48,39,99,93,61,29.40,29.21,11,2,20,0.79
2013-3-11,41,34,31,40,31,25,96,88,75,29.60,29.33,8,1,16,0.01
2013-3-12,45,34,23,31,25,20,91,72,50,29.85,29.58,14,3,26,0.00
2013-3-13,39,31,25,24,17,11,84,57,34,30.06,29.85,13,4,21,0.05
2013-3-14,57,41,25,35,27,18,76,59,38,30.01,29.70,12,3,21,0.00
2013-3-15,68,51,32,45,38,28,91,64,33,29.73,29.28,10,2,15,0.00
2013-3-16,55,42,37,48,36,31,95,81,72,29.72,29.27,11,3,100,0.00
2013-3-17,40,36,33,34,30,25,96,80,63,29.76,29.46,10,4,17,0.14
2013-3-18,50,39,32,38,31,18,99,77,37,29.65,29.33,14,4,25,0.08
2013-3-19,46,34,28,19,15,8,66,47,24,29.84,29.64,11,3,19,0.00
2013-3-20,34,28,21,26,12,4,74,52,30,29.93,29.76,14,5,25,0.00
2013-3-21,38,27,17,15,11,7,77,53,31,29.77,29.61,7,1,10,0.00
2013-3-22,41,33,24,23,19,15,78,58,40,29.69,29.62,7,2,12,0.00
2013-3-23,52,43,35,31,24,20,74,48,31,29.70,29.51,9,2,15,0.00
2013-3-24,39,32,30,32,30,30,99,95,73,29.58,29.31,4,0,15,0.02
2013-3-25,35,32,29,31,28,25,99,86,67,29.83,29.49,11,2,17,0.12
2013-3-26,40,34,27,28,25,21,81,70,50,29.98,29.83,11,2,17,0.00
2013-3-27,44,35,24,30,24,20,90,66,46,30.02,29.93,6,1,8,0.00
2013-3-28,52,42,32,34,29,24,73,60,45,29.99,29.88,10,3,14,0.00
2013-3-29,61,49,36,46,38,30,82,66,46,29.91,29.83,7,2,12,0.00
2013-3-30,57,48,41,47,43,38,93,81,56,29.84,29.55,14,4,22,0.01
2013-3-31,66,53,43,51,41,24,99,68,33,29.63,29.49,11,3,21,0.00
2013-4-1,47,39,33,31,20,8,71,48,23,29.90,29.62,14,4,21,0.00
2013-4-2,49,38,25,23,16,1,80,46,16,29.99,29.90,9,2,15,0.00
2013-4-3,54,42,28,24,20,12,70,44,22,30.06,29.90,10,2,17,0.00
2013-4-4,61,48,32,30,23,12,79,40,15,29.90,29.67,8,1,12,0.00
2013-4-5,65,53,38,36,31,22,81,46,22,29.83,29.64,9,2,15,0.00
2013-4-6,75,63,52,49,39,31,57,42,23,29.64,29.30,20,6,33,0.00
2013-4-7,79,65,47,54,43,35,81,49,24,29.57,29.39,11,2,19,0.00
2013-4-8,78,68,56,62,58,52,90,72,53,29.47,29.29,13,3,30,0.11
2013-4-9,80,72,65,63,60,57,78,67,53,29.49,29.40,15,5,24,0.00
2013-4-10,71,57,50,64,55,48,99,91,77,29.56,29.26,14,4,21,1.77
2013-4-11,52,45,39,52,41,32,99,85,71,29.36,29.28,8,2,14,0.06
2013-4-12,44,41,38,36,33,31,81,75,65,29.63,29.32,10,2,17,0.00
2013-4-13,59,48,35,40,35,28,87,64,42,29.69,29.51,9,2,16,0.00
2013-4-14,81,65,48,56,45,37,81,54,23,29.52,29.18,17,8,27,0.18
2013-4-15,61,56,45,58,51,43,98,85,63,29.65,29.36,7,1,13,0.84
2013-4-16,52,47,42,43,41,38,97,80,62,29.82,29.59,8,3,11,0.31
2013-4-17,63,52,46,59,49,42,99,89,74,29.79,29.29,11,4,19,0.27
2013-4-18,65,54,39,64,51,32,99,91,75,29.42,29.12,14,4,21,0.94
2013-4-19,49,42,36,33,29,25,77,61,40,29.70,29.37,13,4,26,0.00
2013-4-20,54,44,28,34,27,12,91,55,23,29.96,29.70,7,2,10,0.00
2013-4-21,66,53,41,43,38,31,73,57,39,30.03,29.86,14,6,21,0.00
2013-4-22,73,59,44,46,39,30,73,50,21,29.89,29.62,11,4,18,0.00
2013-4-23,61,46,38,50,42,37,96,85,57,29.70,29.55,8,3,16,0.51
2013-4-24,54,44,35,37,33,26,98,70,36,29.85,29.66,10,2,16,0.05
2013-4-25,64,52,39,38,32,23,83,51,24,29.97,29.82,12,2,19,0.00
2013-4-26,64,56,49,50,43,33,77,63,52,29.97,29.87,14,4,23,0.00
2013-4-27,55,51,47,52,49,43,99,91,75,29.92,29.60,10,1,14,0.31
2013-4-28,65,56,50,56,52,48,99,88,66,29.60,29.51,6,2,10,0.00
2013-4-29,82,66,48,65,56,47,99,72,49,29.54,29.34,15,6,25,0.00
2013-4-30,88,76,65,63,56,44,86,54,25,29.56,29.38,14,5,23,0.00
2013-5-1,87,75,60,60,54,47,77,52,29,29.72,29.56,11,3,18,0.00
2013-5-2,70,53,40,61,45,39,98,77,62,29.85,29.71,21,4,21,0.35
2013-5-3,43,40,38,43,40,37,99,97,94,29.78,29.42,8,3,15,2.29
2013-5-4,50,46,41,48,44,40,99,95,84,29.67,29.43,7,1,11,0.04
2013-5-5,71,56,44,60,53,44,99,90,54,29.66,29.55,7,1,12,0.15
2013-5-6,77,64,53,56,53,44,99,70,32,29.66,29.59,9,1,15,0.01
2013-5-7,82,70,58,56,48,31,89,51,17,29.68,29.61,6,1,10,0.00
2013-5-8,85,68,54,62,54,38,92,66,23,29.68,29.60,7,1,14,0.13
2013-5-9,72,64,59,67,62,56,99,91,76,29.61,29.46,11,2,17,0.96
2013-5-10,60,58,54,59,55,50,99,89,75,29.65,29.47,6,2,14,0.01
2013-5-11,65,56,45,56,39,23,99,60,23,29.81,29.63,14,4,27,0.00
2013-5-12,62,50,36,33,27,19,82,44,19,29.89,29.77,10,2,17,0.00
2013-5-13,76,59,39,44,37,23,93,50,19,29.85,29.62,9,2,14,0.00
2013-5-14,92,75,58,62,53,44,78,48,25,29.63,29.39,9,2,16,0.00
2013-5-15,90,79,67,68,59,52,90,51,37,29.55,29.43,8,2,17,0.02
2013-5-16,87,74,64,70,65,57,99,76,45,29.58,29.48,10,2,17,0.08
2013-5-17,84,71,61,69,63,56,90,77,54,29.61,29.55,8,2,14,0.19
2013-5-18,86,74,64,71,66,63,98,78,52,29.65,29.50,9,3,14,0.01
2013-5-19,91,79,69,76,68,64,88,72,54,29.54,29.29,14,5,26,0.05
2013-5-20,86,72,63,70,65,62,99,78,48,29.52,29.31,17,5,29,0.93
2013-5-21,84,72,63,67,64,61,99,77,51,29.40,29.31,11,2,18,0.00
2013-5-22,79,68,62,63,58,53,92,71,43,29.51,29.31,6,1,14,0.00
2013-5-23,70,62,56,59,54,50,90,76,51,29.89,29.50,11,2,17,0.00
2013-5-24,73,61,47,51,45,38,93,60,31,30.06,29.89,9,2,17,0.00
2013-5-25,68,59,54,56,51,44,93,74,59,29.98,29.80,14,3,22,0.35
2013-5-26,80,66,54,67,58,49,90,76,59,29.83,29.61,10,3,18,0.12
2013-5-27,75,69,65,68,66,64,99,90,73,29.61,29.31,12,2,21,1.49
2013-5-28,80,73,64,72,68,61,96,84,73,29.60,29.37,13,4,24,0.30
2013-5-29,90,77,64,73,66,62,98,72,46,29.60,29.42,14,5,24,0.02
2013-5-30,87,74,64,72,67,62,99,79,54,29.51,29.39,17,7,29,1.38
2013-5-31,77,67,63,74,66,63,99,96,84,29.55,29.31,12,3,24,1.07
2013-6-1,81,70,43,73,64,29,99,83,50,30.21,29.34,13,3,19,0.01
2013-6-2,68,63,58,59,55,47,90,76,63,30.18,30.00,9,2,15,0.00
2013-6-3,74,64,54,56,51,47,89,66,40,30.25,30.13,8,1,11,0.00
2013-6-4,78,67,55,60,55,50,86,66,47,30.23,30.12,9,2,14,0.00
2013-6-5,82,71,59,66,60,55,90,70,48,30.17,30.01,6,1,11,0.00
2013-6-6,78,70,63,65,58,48,99,69,36,30.05,29.98,10,2,103,0.00
2013-6-7,76,66,58,59,56,52,99,71,43,30.08,30.03,7,1,12,0.00
2013-6-8,84,71,55,63,57,53,95,64,39,30.10,30.01,8,2,13,0.00
2013-6-9,75,68,63,70,62,56,98,80,63,30.06,29.90,9,3,14,0.26
2013-6-10,79,70,62,66,63,60,99,80,53,30.04,29.90,8,1,12,0.00
2013-6-11,93,78,62,75,68,60,98,74,49,30.07,29.96,11,2,17,0.30
2013-6-12,98,85,72,77,72,68,89,67,42,30.06,29.82,14,3,24,0.00
2013-6-13,86,76,67,68,60,50,99,60,29,30.14,29.91,12,3,24,0.00
2013-6-14,86,74,63,67,61,56,84,65,43,30.25,30.02,8,2,14,0.00
2013-6-15,93,76,67,76,69,62,99,80,52,30.23,30.01,9,3,16,0.59
2013-6-16,86,76,67,76,71,67,99,85,65,30.16,30.04,7,1,11,0.06
2013-6-17,88,78,69,75,70,64,99,79,56,30.11,30.03,9,1,14,0.00
2013-6-18,87,76,64,71,64,53,99,69,34,30.13,30.05,8,2,16,0.00
2013-6-19,88,76,63,67,61,54,84,61,35,30.22,30.13,6,1,10,0.00
2013-6-20,94,82,68,73,67,60,82,61,44,30.24,30.15,11,3,16,0.00
2013-6-21,97,84,43,78,72,28,82,68,50,30.20,29.90,11,4,19,0.00
2013-6-22,95,81,73,80,73,64,95,76,57,30.03,29.89,14,4,21,0.00
2013-6-23,94,76,70,78,69,63,99,80,55,30.00,29.83,11,4,21,0.00
2013-6-24,95,82,69,79,73,68,98,77,54,30.01,29.82,14,4,19,0.00
2013-6-25,95,85,75,79,74,70,88,71,55,29.90,29.75,9,3,22,0.00
2013-6-26,93,82,73,80,74,67,90,79,61,29.79,29.68,14,3,27,0.00
2013-6-27,93,82,71,75,71,64,95,71,40,29.87,29.76,6,1,11,0.02
2013-6-28,90,80,69,70,61,47,96,58,25,29.83,29.68,13,3,25,0.00
2013-6-29,82,72,65,67,62,57,96,74,49,29.75,29.63,15,2,27,0.37
2013-6-30,85,71,64,68,63,55,99,77,49,29.93,29.74,7,2,14,0.04
2013-7-1,83,71,60,63,55,46,87,59,31,29.99,29.92,7,1,14,0.00
2013-7-2,80,70,59,61,55,50,82,60,37,30.02,29.96,6,1,11,0.00
2013-7-3,87,74,63,69,60,51,84,64,34,30.03,29.95,6,1,10,0.00
2013-7-4,90,77,64,71,62,57,94,63,38,30.04,29.95,8,2,13,0.00
2013-7-5,94,79,66,71,64,58,94,62,38,30.03,29.94,8,2,13,0.00
2013-7-6,91,79,68,75,68,62,97,71,48,30.00,29.90,9,2,14,0.00
2013-7-7,94,82,70,76,69,63,84,66,45,29.98,29.91,8,2,14,0.00
2013-7-8,93,83,76,80,73,66,92,72,58,30.04,29.95,9,2,13,0.02
2013-7-9,96,85,43,79,75,29,84,72,53,30.08,29.89,6,2,11,0.00
2013-7-10,90,81,71,78,70,62,99,71,44,30.04,29.88,10,2,15,0.25
2013-7-11,87,76,64,67,61,54,92,63,35,30.11,30.03,6,1,11,0.00
2013-7-12,88,76,64,64,57,47,79,54,27,30.15,30.05,8,2,16,0.00
2013-7-13,88,77,64,67,60,55,74,56,36,30.12,30.03,8,2,11,0.00
2013-7-14,92,80,68,73,66,61,89,64,40,30.17,30.08,8,2,15,0.00
2013-7-15,95,81,72,76,72,68,92,76,48,30.25,30.15,6,1,9,0.00
2013-7-16,96,85,75,79,74,69,97,70,44,30.31,30.23,7,2,11,0.00
2013-7-17,98,86,75,78,73,68,92,67,42,30.34,30.20,6,1,8,0.00
2013-7-18,98,87,76,79,74,69,92,66,41,30.24,30.01,7,2,10,0.00
2013-7-19,98,87,77,77,71,63,81,61,35,30.02,29.86,4,1,12,0.00
2013-7-20,92,83,75,73,69,62,86,65,44,29.94,29.86,5,1,9,0.00
2013-7-21,87,76,72,76,72,66,99,87,63,29.94,29.84,8,1,14,0.20
2013-7-22,92,80,71,80,74,70,99,82,57,29.89,29.77,5,1,10,0.01
2013-7-23,89,79,69,74,66,62,88,65,45,29.94,29.78,8,2,16,0.00
2013-7-24,82,72,64,62,58,53,90,63,41,30.06,29.93,7,1,11,0.00
2013-7-25,88,73,58,65,60,55,96,64,38,30.13,30.04,5,1,9,0.00
2013-7-26,82,73,66,73,66,60,91,79,68,30.06,29.92,7,2,14,0.02
2013-7-27,75,66,59,60,53,45,94,65,36,30.04,29.98,11,2,18,0.00
2013-7-28,81,67,51,56,50,44,97,58,30,30.08,30.00,9,1,15,0.00
2013-7-29,84,70,54,64,58,50,96,70,39,30.16,30.07,6,1,10,0.00
2013-7-30,81,73,65,73,69,64,99,89,73,30.11,29.99,8,2,14,0.60
2013-7-31,78,73,68,72,69,65,99,88,70,30.08,30.01,7,2,11,0.01
2013-8-1,87,76,64,73,64,54,99,71,34,30.09,29.98,6,1,10,0.00
2013-8-2,86,75,69,75,69,64,99,84,66,29.99,29.92,8,2,13,0.06
2013-8-3,86,75,68,69,64,58,99,72,42,30.15,29.96,6,1,12,0.00
2013-8-4,85,73,62,67,62,56,92,69,42,30.20,30.08,5,1,8,0.00
2013-8-5,83,74,66,73,68,62,91,79,64,30.11,29.86,9,3,15,0.00
2013-8-6,88,78,68,78,73,68,99,85,66,29.92,29.83,7,2,11,0.00
2013-8-7,90,78,72,79,74,68,99,86,68,29.96,29.80,7,1,11,0.00
2013-8-8,83,75,67,74,69,65,96,83,66,30.00,29.93,4,1,8,0.00
2013-8-9,86,76,69,70,67,61,97,75,48,30.09,29.97,6,1,9,0.00
2013-8-10,85,76,67,69,61,52,95,64,33,30.17,30.09,10,1,14,0.00
2013-8-11,89,76,60,68,62,55,94,66,36,30.17,30.05,8,2,11,0.00
2013-8-12,81,74,68,75,69,63,98,83,70,30.08,29.93,11,1,17,0.32
2013-8-13,82,70,61,67,61,55,99,75,44,30.17,29.98,6,1,10,0.00
2013-8-14,79,66,53,58,52,46,97,63,36,30.24,30.14,5,1,8,0.00
2013-8-15,78,67,57,61,55,50,90,68,41,30.19,30.09,7,1,13,0.00
2013-8-16,81,70,61,61,57,52,90,66,40,30.19,30.12,8,1,13,0.00
2013-8-17,83,71,57,61,57,52,96,65,37,30.21,30.13,7,1,13,0.00
2013-8-18,85,73,59,65,60,55,92,65,43,30.20,30.09,6,1,9,0.00
2013-8-19,89,76,63,70,65,59,96,69,46,30.14,30.03,7,1,11,0.00
2013-8-20,91,78,67,74,67,64,92,71,47,30.12,30.03,9,2,12,0.00
2013-8-21,93,80,67,72,68,62,97,69,40,30.12,30.02,7,1,11,0.00
2013-8-22,92,80,70,76,72,67,93,76,54,30.11,30.02,6,1,9,0.00
2013-8-23,93,81,70,75,70,66,96,72,46,30.13,30.06,8,2,12,0.00
2013-8-24,94,81,69,74,69,67,93,70,49,30.22,30.11,8,3,11,0.00
2013-8-25,96,81,68,73,67,61,92,67,35,30.26,30.17,6,2,11,0.00
2013-8-26,93,75,70,77,70,66,99,84,58,29.96,29.83,4,1,7,0.00
2013-8-27,92,87,72,77,69,62,97,56,46,30.13,29.72,5,1,12,0.00
2013-8-28,92,84,71,72,68,65,87,61,47,30.17,30.09,5,1,11,0.00
2013-8-29,94,85,72,78,71,66,89,65,47,30.19,30.08,6,1,10,0.00
2013-8-30,100,88,77,78,72,66,97,64,35,30.11,29.94,5,1,8,0.00
2013-8-31,93,86,77,76,72,69,85,64,50,29.96,29.87,5,2,8,0.00
2013-9-1,91,80,72,78,70,60,99,73,39,30.02,29.92,9,1,15,0.00
2013-9-2,86,74,62,64,59,53,94,63,36,30.13,30.02,8,1,14,0.00
2013-9-3,85,70,55,63,56,51,94,65,36,30.24,30.13,6,1,8,0.00
2013-9-4,90,74,58,64,55,39,95,57,18,30.30,30.19,5,1,8,0.00
2013-9-5,91,77,64,65,59,54,89,58,30,30.34,30.26,5,1,8,0.00
2013-9-6,90,79,67,69,62,58,86,59,34,30.32,30.16,6,2,10,0.00
2013-9-7,91,80,64,69,65,60,92,63,45,30.17,30.03,7,1,10,0.00
2013-9-8,90,80,72,77,72,64,99,78,57,30.12,30.00,14,3,21,0.76
2013-9-9,94,84,73,75,72,64,99,70,47,30.09,30.01,5,2,8,0.00
2013-9-10,91,83,72,73,69,63,85,64,47,30.21,30.09,5,1,8,0.00
2013-9-11,91,82,70,71,67,61,83,62,44,30.25,30.14,4,1,7,0.00
2013-9-12,85,75,63,72,63,40,99,71,24,30.25,30.15,10,2,17,0.37
2013-9-13,76,65,56,59,49,32,85,60,22,30.31,30.23,6,1,11,0.00
2013-9-14,75,64,49,54,48,43,94,59,33,30.31,30.15,6,2,12,0.00
2013-9-15,83,68,58,68,58,46,99,72,45,30.29,30.10,9,3,15,0.06
2013-9-16,72,64,58,61,57,54,97,81,57,30.44,30.29,6,1,12,0.00
2013-9-17,70,63,55,64,59,54,95,86,78,30.40,30.20,6,2,11,0.00
2013-9-18,89,76,64,74,69,61,99,80,61,30.20,30.03,11,4,21,0.00
2013-9-19,91,80,70,74,71,68,98,74,48,30.08,29.94,10,4,18,0.18
2013-9-20,72,68,57,70,62,51,99,83,50,30.07,30.00,8,2,13,0.11
2013-9-21,72,61,52,53,50,45,99,71,40,30.12,30.04,9,2,13,0.00
2013-9-22,75,63,49,58,51,47,98,68,39,30.17,30.07,4,1,12,0.00
2013-9-23,76,65,53,57,52,48,86,63,43,30.17,30.05,9,3,15,0.00
2013-9-24,80,68,55,64,57,49,89,70,53,30.09,29.93,8,3,16,0.00
2013-9-25,83,71,60,66,62,58,97,74,53,30.04,29.94,6,1,10,0.00
2013-9-26,86,73,61,68,62,58,93,69,44,30.14,30.01,9,2,14,0.00
2013-9-27,86,74,63,68,60,53,86,64,44,30.22,30.11,11,3,17,0.00
2013-9-28,82,70,60,73,64,54,99,81,59,30.18,30.03,11,3,21,0.39
2013-9-29,74,62,52,60,52,43,99,72,36,30.23,30.12,4,1,10,0.01
2013-9-30,78,65,50,62,54,44,92,69,47,30.12,30.00,10,2,15,0.00
2013-10-1,84,72,63,72,67,60,99,86,56,30.14,30.03,8,2,13,0.00
2013-10-2,86,74,64,74,68,64,99,85,57,30.19,30.06,5,2,10,0.00
2013-10-3,86,74,69,75,70,66,99,87,59,30.08,29.93,8,2,14,0.31
2013-10-4,90,78,69,74,70,66,99,79,51,30.08,29.99,9,4,17,0.00
2013-10-5,76,67,52,72,64,51,99,90,75,30.07,29.97,8,2,14,0.11
2013-10-6,55,50,44,51,46,40,99,86,63,30.02,29.93,8,2,14,0.08
2013-10-7,71,58,48,52,48,43,99,75,38,30.25,30.01,8,2,13,0.00
2013-10-8,76,62,48,57,49,46,96,66,36,30.31,30.23,9,2,16,0.00
2013-10-9,74,62,50,54,49,44,93,64,37,30.32,30.22,6,1,11,0.00
2013-10-10,78,67,54,62,56,50,95,70,46,30.28,30.12,9,2,17,0.00
2013-10-11,79,68,57,64,58,54,99,73,44,30.14,30.00,12,4,21,0.00
2013-10-12,74,65,53,63,51,35,94,63,26,30.35,30.04,9,2,15,0.00
2013-10-13,71,58,45,44,36,22,85,49,16,30.53,30.35,6,0,10,0.00
2013-10-14,70,58,47,53,41,36,78,55,30,30.48,30.16,8,3,15,0.01
2013-10-15,71,61,50,65,56,43,99,83,58,30.17,30.00,10,2,14,0.09
2013-10-16,56,51,45,46,43,41,88,74,61,30.17,30.10,8,1,13,0.00
2013-10-17,66,54,47,52,45,38,99,75,39,30.14,30.01,8,1,16,0.07
2013-10-18,57,48,42,44,41,33,99,78,45,30.18,30.03,8,2,14,0.04
2013-10-19,58,47,36,43,39,33,99,76,40,30.14,30.01,9,1,15,0.02
2013-10-20,73,58,42,46,40,32,87,57,25,30.05,29.91,11,2,20,0.00
2013-10-21,59,48,37,44,36,29,86,64,42,30.18,30.01,11,2,15,0.00
2013-10-22,59,44,35,49,39,31,95,84,62,30.17,29.91,14,3,24,0.04
2013-10-23,49,41,35,38,33,24,97,75,38,30.26,30.14,13,2,17,0.00
2013-10-24,46,39,30,38,28,22,94,66,42,30.52,30.24,12,3,20,0.00
2013-10-25,56,41,26,34,26,22,96,61,28,30.60,30.29,9,1,15,0.00
2013-10-26,61,49,38,41,30,5,67,49,23,30.29,30.15,11,3,18,0.00
2013-10-27,60,44,30,39,29,26,92,59,28,30.26,30.12,8,1,13,0.00
2013-10-28,70,53,36,39,32,25,84,48,19,30.36,30.16,7,1,14,0.00
2013-10-29,59,52,44,56,46,34,99,80,51,30.36,30.18,11,3,16,0.02
2013-10-30,68,62,56,68,62,55,99,99,99,30.18,29.89,11,2,18,0.43
2013-10-31,66,57,46,65,56,45,99,98,93,29.90,29.52,10,3,18,1.12
2013-11-1,58,49,42,46,43,40,99,82,52,29.97,29.70,11,2,19,0.00
2013-11-2,55,47,37,43,38,30,93,72,41,30.30,29.96,11,3,18,0.00
2013-11-3,58,46,32,40,34,31,99,66,39,30.39,30.22,13,3,20,0.00
2013-11-4,60,53,46,48,42,36,74,66,59,30.31,30.18,13,4,21,0.00
2013-11-5,58,56,53,57,54,47,99,93,75,30.34,30.06,13,5,21,0.24
2013-11-6,59,47,35,59,44,32,99,92,74,30.40,29.99,13,4,22,0.19
2013-11-7,54,41,29,41,33,28,99,75,41,30.47,30.39,9,1,15,0.00
2013-11-8,57,44,28,38,32,26,98,64,37,30.46,30.12,14,5,23,0.00
2013-11-9,68,55,46,44,36,23,80,53,19,30.39,30.11,11,2,20,0.00
2013-11-10,54,45,37,35,31,27,78,60,38,30.56,30.37,5,1,9,0.00
2013-11-11,60,45,29,48,36,21,97,72,55,30.68,30.27,8,3,17,0.00
2013-11-12,34,26,20,22,16,12,84,66,40,30.91,30.68,9,2,17,0.00
2013-11-13,46,33,18,22,14,7,88,51,21,30.80,30.35,11,2,17,0.00
2013-11-14,57,45,34,22,18,9,54,36,15,30.35,30.12,8,3,21,0.00
2013-11-15,58,48,43,44,34,22,87,58,40,30.15,29.99,14,3,20,0.00
2013-11-16,65,58,48,60,54,44,95,86,72,29.99,29.68,17,8,27,0.01
2013-11-17,76,61,43,65,52,37,99,74,41,30.10,29.44,15,5,33,0.00
2013-11-18,54,44,35,42,33,25,95,67,33,30.42,30.10,11,2,23,0.00
2013-11-19,51,39,30,32,28,25,84,65,39,30.48,30.31,8,3,14,0.00
2013-11-20,46,41,38,42,35,29,95,81,66,30.32,30.10,12,5,20,0.22
2013-11-21,52,48,42,50,45,41,99,90,75,30.38,30.16,8,2,14,0.32
2013-11-22,42,35,26,42,32,25,99,90,79,30.68,30.37,11,4,17,0.04
2013-11-23,27,23,15,25,14,8,95,70,47,30.86,30.66,13,4,19,0.00
2013-11-24,30,21,12,14,10,4,88,65,36,30.87,30.51,9,2,14,0.00
2013-11-25,37,32,26,23,17,13,70,54,41,30.51,30.27,11,2,17,0.00
2013-11-26,38,29,20,28,19,10,90,67,48,30.40,30.22,14,4,22,0.00
2013-11-27,28,21,15,13,9,5,75,60,37,30.50,30.33,9,3,13,0.00
2013-11-28,43,30,20,23,18,12,75,60,43,30.62,30.28,9,3,15,0.00
2013-11-29,44,32,18,26,21,14,89,67,44,30.70,30.46,8,2,13,0.00
2013-11-30,57,42,30,38,33,24,91,72,47,30.47,30.20,10,2,16,0.00
2013-12-1,53,41,28,38,33,27,99,75,48,30.25,30.04,4,1,7,0.00
2013-12-2,53,43,37,43,37,31,98,80,65,30.05,29.78,6,2,10,0.00
2013-12-3,56,48,37,52,47,37,99,94,85,29.80,29.70,11,3,19,0.00
2013-12-4,64,50,30,56,47,26,99,89,63,30.02,29.62,12,3,18,0.00
2013-12-5,30,24,21,26,14,9,84,64,53,30.44,30.01,12,4,24,0.00
2013-12-6,21,17,12,10,5,1,71,59,45,30.73,30.42,9,4,14,0.00
2013-12-7,23,15,8,6,3,-2,80,59,33,30.84,30.58,6,2,11,0.00
2013-12-8,27,23,17,25,18,6,96,81,61,30.58,30.12,9,3,14,0.00
2013-12-9,25,19,12,23,13,6,93,76,64,30.44,30.19,10,2,17,0.00
2013-12-10,37,21,8,25,9,3,83,62,39,30.42,30.25,12,2,21,0.00
2013-12-11,27,20,6,20,7,-6,75,60,29,30.75,30.36,12,3,20,0.00
2013-12-12,41,23,5,17,9,-4,75,54,33,30.73,30.33,11,2,17,0.00
2013-12-13,39,32,24,34,26,16,99,80,47,30.33,30.06,8,2,13,0.27
2013-12-14,33,29,22,33,29,21,99,97,92,30.27,30.00,0,0,0,0.00
2013-12-15,28,23,14,25,21,12,95,90,82,30.30,30.14,0,0,1,0.02
2013-12-16,28,24,19,26,23,17,99,95,89,30.27,30.13,0,0,0,0.00
2013-12-17,39,30,20,32,25,16,99,83,60,30.37,30.24,7,1,13,0.17
2013-12-18,47,36,20,35,25,15,84,66,49,30.35,29.99,12,4,21,0.00
2013-12-19,57,49,41,48,43,34,89,80,67,30.00,29.85,11,4,17,0.00
2013-12-20,53,41,31,53,41,30,99,98,89,30.01,29.81,10,3,15,0.02
2013-12-21,32,31,30,32,30,28,99,97,92,30.00,29.73,4,0,8,0.00
2013-12-22,32,29,19,32,28,16,99,95,86,30.41,29.77,0,0,0,0.00
2013-12-23,20,14,6,17,10,-1,92,82,70,30.70,30.41,0,0,0,0.00
2013-12-24,23,13,1,17,7,-4,81,77,71,30.70,30.40,23,0,0,0.00
2013-12-25,33,29,22,32,27,17,99,93,79,30.40,30.29,0,0,0,0.00
2013-12-26,44,33,21,36,29,19,98,85,70,30.42,30.29,8,1,14,0.35
2013-12-27,51,38,27,37,32,26,99,78,53,30.44,30.30,7,1,12,0.01
2013-12-28,57,44,35,36,31,26,86,62,38,30.32,30.00,8,2,14,0.00
2013-12-29,40,24,10,32,17,-2,92,74,57,30.41,29.98,14,5,24,0.00
2013-12-30,26,15,5,14,2,-6,70,57,35,30.47,30.28,6,2,11,0.00
2013-12-31,40,28,17,24,19,13,85,69,50,30.50,30.23,10,2,14,0.00
2014-1-1,28,22,16,22,19,14,96,87,75,30.28,30.19,7,2,11,0.00
2014-1-2,34,13,5,14,7,-2,94,78,39,30.59,29.60,10,3,16,0.00